Terminal Aerodrome Forecast
Issued by NWS Omaha/Valley, NE

Home | Current Version | Previous Version | Text Only | Print | Product List | Glossary On
Versions: 1 2 3 4 5 6 7 8 9 10 11 12 13 14 15 16 17 18 19 20 21 22 23 24 25 26 27 28 29 30 31 32 33 34 35 36 37 38 39 40 41 42 43 44 45 46 47 48 49 50
000
FTUS43 KOAX 250603 AAA
TAFOMA
TAF AMD
KOMA 250603Z 2506/2606 15009KT P6SM SCT060 OVC200
      TEMPO 2506/2508 VRB20G30KT 5SM -TSRA BKN020CB
     FM250800 16008KT P6SM OVC060
      TEMPO 2511/2515 4SM TSRA OVC030CB
     FM251500 14009KT P6SM OVC015
     FM252100 17010KT P6SM OVC050=

USA.gov is the U.S. government's official web portal to all federal, state and local government web resources and services.